createdAt,value
2024-03-15T00:00:08.315Z,15.36
2024-03-15T00:02:56.802Z,15.35
2024-03-15T00:05:25.454Z,15.35
2024-03-15T00:07:54.089Z,15.35
2024-03-15T00:10:22.267Z,15.37
2024-03-15T00:12:51.358Z,15.39
2024-03-15T00:15:19.941Z,15.41
2024-03-15T00:17:49.084Z,15.41
2024-03-15T00:20:18.817Z,15.42
2024-03-15T00:22:47.494Z,15.38
2024-03-15T00:25:16.209Z,15.34
2024-03-15T00:27:44.815Z,15.30
2024-03-15T00:30:13.585Z,15.28
2024-03-15T00:32:43.854Z,15.27
2024-03-15T00:35:12.669Z,15.27
2024-03-15T00:37:41.263Z,15.25
2024-03-15T00:40:10.277Z,15.22
2024-03-15T00:42:38.317Z,15.20
2024-03-15T00:45:08.246Z,15.20
2024-03-15T00:47:37.106Z,15.20
2024-03-15T00:50:06.546Z,15.20
2024-03-15T00:52:35.134Z,15.20
2024-03-15T00:55:04.147Z,15.22
2024-03-15T00:57:32.433Z,15.22
2024-03-15T01:00:01.298Z,15.20
2024-03-15T01:04:38.019Z,15.16
2024-03-15T01:07:05.919Z,15.16
2024-03-15T01:09:33.765Z,15.16
2024-03-15T01:12:02.240Z,15.16
2024-03-15T01:14:30.530Z,15.15
2024-03-15T01:16:59.441Z,15.15
2024-03-15T01:19:28.505Z,15.15
2024-03-15T01:21:56.997Z,15.14
2024-03-15T01:24:26.111Z,15.12
2024-03-15T01:26:54.910Z,15.12
2024-03-15T01:29:23.341Z,15.10
2024-03-15T01:31:51.753Z,15.08
2024-03-15T01:34:19.910Z,15.07
2024-03-15T01:36:48.307Z,15.07
2024-03-15T01:39:16.319Z,15.07
2024-03-15T01:41:44.329Z,15.08
2024-03-15T01:44:12.221Z,15.08
2024-03-15T01:46:39.966Z,15.08
2024-03-15T01:49:08.234Z,15.08
2024-03-15T01:51:36.644Z,15.06
2024-03-15T01:54:04.649Z,15.06
2024-03-15T01:56:33.621Z,15.06
2024-03-15T01:59:01.431Z,15.06
2024-03-15T02:01:30.581Z,15.04
2024-03-15T02:03:58.705Z,15.03
2024-03-15T02:06:26.797Z,15.03
2024-03-15T02:08:56.489Z,15.03
2024-03-15T02:11:25.062Z,15.02
2024-03-15T02:13:53.454Z,15.02
2024-03-15T02:16:21.684Z,15.01
2024-03-15T02:18:50.407Z,15.00
2024-03-15T02:21:18.401Z,15.00
2024-03-15T02:23:47.068Z,14.98
2024-03-15T02:26:15.584Z,14.97
2024-03-15T02:28:43.370Z,14.95
2024-03-15T02:31:12.193Z,14.93
2024-03-15T02:33:40.493Z,14.91
2024-03-15T02:36:08.935Z,14.87
2024-03-15T02:38:38.159Z,14.84
2024-03-15T02:41:07.220Z,14.80
2024-03-15T02:43:35.602Z,14.77
2024-03-15T02:46:03.568Z,14.74
2024-03-15T02:48:39.332Z,14.70
2024-03-15T02:51:07.996Z,14.68
2024-03-15T02:53:36.146Z,14.64
2024-03-15T02:56:05.039Z,14.61
2024-03-15T02:58:32.809Z,14.59
2024-03-15T03:01:00.641Z,14.57
2024-03-15T03:03:30.266Z,14.54
2024-03-15T03:05:58.806Z,14.52
2024-03-15T03:08:26.587Z,14.50
2024-03-15T03:10:55.139Z,14.48
2024-03-15T03:13:23.986Z,14.46
2024-03-15T03:15:52.531Z,14.45
2024-03-15T03:18:21.203Z,14.43
2024-03-15T03:20:50.051Z,14.43
2024-03-15T03:23:17.910Z,14.42
2024-03-15T03:25:45.959Z,14.40
2024-03-15T03:28:14.159Z,14.38
2024-03-15T03:30:43.062Z,14.36
2024-03-15T03:33:11.853Z,14.34
2024-03-15T03:35:40.214Z,14.33
2024-03-15T03:38:09.066Z,14.31
2024-03-15T03:40:37.747Z,14.31
2024-03-15T03:43:05.697Z,14.30
2024-03-15T03:45:33.590Z,14.26
2024-03-15T03:48:01.696Z,14.24
2024-03-15T03:50:30.881Z,14.20
2024-03-15T03:52:58.729Z,14.17
2024-03-15T03:55:27.348Z,14.12
2024-03-15T03:57:58.850Z,14.09
2024-03-15T04:00:27.463Z,14.07
2024-03-15T04:02:55.797Z,14.05
2024-03-15T04:05:24.201Z,14.03
2024-03-15T04:07:52.949Z,14.03
2024-03-15T04:10:20.844Z,14.02
2024-03-15T04:12:49.054Z,14.00
2024-03-15T04:15:25.730Z,13.99
2024-03-15T04:17:58.882Z,13.98
2024-03-15T04:20:28.427Z,13.97
2024-03-15T04:22:58.009Z,13.96
2024-03-15T04:25:26.760Z,13.96
2024-03-15T04:27:54.865Z,13.95
2024-03-15T04:30:24.458Z,13.94
2024-03-15T04:32:53.014Z,13.93
2024-03-15T04:35:21.211Z,13.93
2024-03-15T04:37:49.067Z,13.92
2024-03-15T04:40:17.647Z,13.91
2024-03-15T04:42:46.192Z,13.90
2024-03-15T04:45:15.070Z,13.89
2024-03-15T04:47:43.685Z,13.87
2024-03-15T04:50:12.235Z,13.85
2024-03-15T04:52:43.185Z,13.83
2024-03-15T04:55:11.786Z,13.81
2024-03-15T04:57:40.840Z,13.80
2024-03-15T05:00:10.598Z,13.79
2024-03-15T05:02:39.818Z,13.77
2024-03-15T05:05:08.634Z,13.75
2024-03-15T05:07:36.593Z,13.72
2024-03-15T05:10:04.828Z,13.71
2024-03-15T05:12:32.910Z,13.70
2024-03-15T05:15:01.452Z,13.69
2024-03-15T05:17:30.496Z,13.68
2024-03-15T05:19:58.881Z,13.68
2024-03-15T05:22:27.012Z,13.68
2024-03-15T05:24:54.921Z,13.68
2024-03-15T05:27:23.027Z,13.69
2024-03-15T05:29:51.488Z,13.70
2024-03-15T05:32:19.347Z,13.71
2024-03-15T05:34:47.275Z,13.71
2024-03-15T05:37:16.212Z,13.72
2024-03-15T05:39:45.917Z,13.74
2024-03-15T05:42:13.978Z,13.77
2024-03-15T05:44:41.957Z,13.81
2024-03-15T05:47:10.738Z,13.85
2024-03-15T05:49:39.645Z,13.91
2024-03-15T05:52:07.604Z,13.99
2024-03-15T05:54:36.060Z,14.09
2024-03-15T05:57:05.147Z,14.21
2024-03-15T05:59:33.297Z,14.33
2024-03-15T06:02:01.780Z,14.45
2024-03-15T06:04:30.069Z,14.56
2024-03-15T06:06:57.996Z,14.66
2024-03-15T06:09:25.927Z,14.75
2024-03-15T06:11:55.527Z,14.82
2024-03-15T06:14:23.460Z,14.89
2024-03-15T06:16:51.573Z,14.95
2024-03-15T06:19:20.170Z,14.99
2024-03-15T06:21:49.137Z,15.03
2024-03-15T06:24:18.216Z,15.09
2024-03-15T06:26:49.933Z,15.14
2024-03-15T06:29:19.193Z,15.21
2024-03-15T06:31:47.860Z,15.29
2024-03-15T06:34:15.770Z,15.39
2024-03-15T06:36:43.673Z,15.50
2024-03-15T06:39:11.786Z,15.62
2024-03-15T06:41:39.823Z,15.77
2024-03-15T06:44:07.727Z,16.04
2024-03-15T06:46:36.030Z,16.50
2024-03-15T06:49:04.148Z,17.17
2024-03-15T06:51:32.506Z,17.86
2024-03-15T06:54:03.020Z,18.41
2024-03-15T06:56:31.179Z,18.95
2024-03-15T06:58:59.242Z,19.72
2024-03-15T07:01:27.193Z,20.64
2024-03-15T07:03:56.984Z,21.65
2024-03-15T07:06:25.943Z,22.68
2024-03-15T07:08:53.701Z,23.71
2024-03-15T07:11:21.794Z,24.66
2024-03-15T07:13:49.887Z,25.37
2024-03-15T07:16:17.775Z,25.78
2024-03-15T07:18:45.864Z,25.87
2024-03-15T07:21:13.946Z,26.07
2024-03-15T07:23:42.582Z,26.54
2024-03-15T07:26:10.828Z,27.27
2024-03-15T07:28:39.372Z,28.13
2024-03-15T07:31:07.410Z,29.01
2024-03-15T07:33:36.567Z,29.90
2024-03-15T07:36:06.198Z,30.71
2024-03-15T07:38:35.860Z,31.38
2024-03-15T07:41:09.976Z,31.92
2024-03-15T07:43:39.004Z,32.56
2024-03-15T07:46:07.312Z,33.23
2024-03-15T07:48:36.037Z,34.02
2024-03-15T07:51:04.315Z,34.85
2024-03-15T07:53:32.513Z,35.69
2024-03-15T07:56:01.113Z,36.48
2024-03-15T07:58:31.562Z,37.18
2024-03-15T08:00:59.541Z,37.82
2024-03-15T08:03:27.994Z,38.40
2024-03-15T08:05:56.685Z,39.03
2024-03-15T08:08:25.018Z,39.64
2024-03-15T08:10:53.778Z,40.19
2024-03-15T08:13:22.868Z,40.65
2024-03-15T08:15:57.971Z,41.01
2024-03-15T08:18:29.789Z,41.30
2024-03-15T08:20:57.935Z,41.51
2024-03-15T08:23:25.930Z,41.70
2024-03-15T08:25:55.145Z,41.90
2024-03-15T08:28:22.979Z,42.07
2024-03-15T08:30:51.028Z,42.08
2024-03-15T08:33:19.765Z,42.11
2024-03-15T08:35:48.389Z,42.09
2024-03-15T08:38:17.368Z,42.07
2024-03-15T08:40:46.007Z,41.90
2024-03-15T08:43:14.221Z,41.31
2024-03-15T08:45:45.453Z,40.44
2024-03-15T08:48:13.897Z,39.52
2024-03-15T08:50:41.993Z,38.63
2024-03-15T08:53:09.933Z,37.95
2024-03-15T08:55:38.130Z,37.55
2024-03-15T08:58:06.675Z,37.56
2024-03-15T09:00:35.779Z,38.11
2024-03-15T09:03:05.802Z,39.00
2024-03-15T09:05:35.902Z,40.04
2024-03-15T09:08:04.067Z,40.93
2024-03-15T09:10:32.184Z,41.67
2024-03-15T09:13:00.122Z,42.42
2024-03-15T09:15:28.183Z,43.07
2024-03-15T09:17:56.497Z,43.62
2024-03-15T09:20:26.253Z,44.12
2024-03-15T09:22:55.337Z,44.60
2024-03-15T09:25:23.826Z,44.97
2024-03-15T09:27:52.262Z,45.28
2024-03-15T09:30:21.448Z,45.67
2024-03-15T09:32:49.514Z,46.01
2024-03-15T09:35:17.590Z,46.00
2024-03-15T09:37:46.640Z,45.37
2024-03-15T09:40:15.567Z,44.43
2024-03-15T09:42:47.353Z,43.82
2024-03-15T09:45:17.115Z,43.60
2024-03-15T09:47:50.304Z,43.46
2024-03-15T09:50:21.068Z,43.35
2024-03-15T09:52:50.017Z,43.36
2024-03-15T09:55:19.359Z,43.48
2024-03-15T09:57:50.582Z,43.59
2024-03-15T10:00:23.446Z,43.53
2024-03-15T10:02:55.069Z,43.59
2024-03-15T10:05:23.801Z,43.64
2024-03-15T10:07:52.767Z,43.61
2024-03-15T10:10:22.124Z,43.58
2024-03-15T10:12:54.053Z,43.42
2024-03-15T10:15:23.893Z,43.06
2024-03-15T10:17:53.953Z,42.76
2024-03-15T10:20:26.744Z,42.51
2024-03-15T10:22:56.613Z,42.43
2024-03-15T10:25:26.115Z,42.44
2024-03-15T10:27:56.901Z,42.46
2024-03-15T10:30:27.590Z,42.52
2024-03-15T10:32:57.835Z,42.61
2024-03-15T10:35:26.050Z,42.70
2024-03-15T10:37:54.184Z,42.66
2024-03-15T10:40:24.246Z,42.58
2024-03-15T10:42:57.570Z,42.54
2024-03-15T10:45:26.746Z,42.57
2024-03-15T10:47:56.097Z,42.64
2024-03-15T10:50:27.265Z,42.78
2024-03-15T10:52:57.915Z,42.64
2024-03-15T10:55:30.324Z,42.29
2024-03-15T10:58:02.430Z,42.13
2024-03-15T11:00:32.285Z,42.12
2024-03-15T11:03:17.562Z,42.06
2024-03-15T11:05:47.150Z,41.78
2024-03-15T11:08:18.288Z,41.34
2024-03-15T11:11:02.390Z,40.96
2024-03-15T11:13:36.558Z,40.78
2024-03-15T11:16:20.504Z,40.91
2024-03-15T11:18:49.646Z,41.05
2024-03-15T11:21:23.439Z,41.09
2024-03-15T11:23:51.884Z,41.05
2024-03-15T11:26:21.833Z,40.96
2024-03-15T11:28:59.798Z,40.90
2024-03-15T11:31:30.713Z,40.96
2024-03-15T11:33:59.418Z,41.01
2024-03-15T11:36:27.935Z,40.84
2024-03-15T11:38:56.136Z,40.49
2024-03-15T11:41:24.124Z,40.15
2024-03-15T11:43:55.850Z,39.69
2024-03-15T11:46:25.029Z,39.11
2024-03-15T11:48:53.588Z,38.42
2024-03-15T11:51:21.721Z,37.85
2024-03-15T11:53:49.864Z,37.23
2024-03-15T11:56:17.838Z,36.39
2024-03-15T11:58:46.749Z,35.49
2024-03-15T12:01:15.179Z,34.67
2024-03-15T12:03:43.291Z,33.94
2024-03-15T12:06:11.752Z,33.29
2024-03-15T12:08:42.503Z,32.66
2024-03-15T12:11:14.901Z,32.03
2024-03-15T12:13:48.135Z,31.48
2024-03-15T12:16:16.766Z,31.06
2024-03-15T12:18:45.259Z,30.62
2024-03-15T12:21:13.478Z,30.14
2024-03-15T12:23:42.596Z,29.73
2024-03-15T12:26:10.567Z,29.49
2024-03-15T12:28:40.950Z,29.22
2024-03-15T12:31:09.034Z,28.94
2024-03-15T12:33:37.062Z,28.87
2024-03-15T12:36:07.666Z,28.87
2024-03-15T12:38:35.623Z,28.97
2024-03-15T12:41:03.640Z,29.09
2024-03-15T12:43:31.979Z,29.07
2024-03-15T12:45:59.941Z,28.93
2024-03-15T12:48:27.844Z,28.77
2024-03-15T12:51:05.971Z,28.67
2024-03-15T12:53:34.057Z,28.58
2024-03-15T12:56:02.041Z,28.55
2024-03-15T12:58:30.468Z,28.54
2024-03-15T13:01:00.102Z,28.48
2024-03-15T13:03:28.356Z,28.38
2024-03-15T13:05:56.770Z,28.26
2024-03-15T13:08:24.755Z,28.18
2024-03-15T13:10:52.772Z,28.22
2024-03-15T13:13:20.800Z,28.29
2024-03-15T13:15:48.908Z,28.33
2024-03-15T13:18:18.716Z,28.19
2024-03-15T13:20:47.441Z,27.95
2024-03-15T13:23:15.461Z,27.74
2024-03-15T13:25:43.302Z,27.62
2024-03-15T13:28:11.442Z,27.53
2024-03-15T13:30:40.034Z,27.41
2024-03-15T13:33:09.901Z,27.27
2024-03-15T13:35:39.466Z,26.97
2024-03-15T13:38:08.222Z,26.72
2024-03-15T13:40:37.564Z,26.57
2024-03-15T13:43:05.718Z,26.46
2024-03-15T13:45:37.069Z,26.40
2024-03-15T13:48:05.540Z,26.32
2024-03-15T13:50:33.664Z,26.24
2024-03-15T13:53:02.114Z,26.05
2024-03-15T13:55:30.619Z,25.76
2024-03-15T13:57:59.318Z,25.63
2024-03-15T14:00:31.264Z,25.64
2024-03-15T14:03:04.872Z,25.69
2024-03-15T14:05:40.668Z,25.79
2024-03-15T14:08:17.363Z,25.86
2024-03-15T14:10:47.779Z,25.89
2024-03-15T14:13:17.085Z,25.91
2024-03-15T14:15:45.780Z,25.93
2024-03-15T14:18:15.161Z,25.98
2024-03-15T14:20:44.302Z,26.09
2024-03-15T14:23:12.466Z,26.16
2024-03-15T14:25:40.863Z,26.19
2024-03-15T14:28:09.095Z,26.15
2024-03-15T14:30:38.674Z,26.13
2024-03-15T14:33:07.426Z,26.13
2024-03-15T14:35:35.855Z,26.27
2024-03-15T14:38:04.491Z,26.36
2024-03-15T14:40:32.277Z,26.41
2024-03-15T14:43:02.271Z,26.41
2024-03-15T14:45:32.329Z,26.31
2024-03-15T14:48:07.601Z,26.20
2024-03-15T14:50:41.529Z,26.19
2024-03-15T14:53:09.825Z,26.30
2024-03-15T14:55:37.979Z,26.41
2024-03-15T14:58:06.071Z,26.48
2024-03-15T15:00:37.118Z,26.54
2024-03-15T15:03:05.658Z,26.59
2024-03-15T15:05:33.563Z,26.54
2024-03-15T15:08:01.623Z,26.52
2024-03-15T15:10:29.673Z,26.53
2024-03-15T15:12:57.699Z,26.53
2024-03-15T15:15:27.841Z,26.49
2024-03-15T15:17:57.363Z,26.43
2024-03-15T15:20:26.212Z,26.40
2024-03-15T15:22:54.060Z,26.40
2024-03-15T15:25:22.743Z,26.39
2024-03-15T15:27:51.662Z,26.38
2024-03-15T15:30:20.082Z,26.39
2024-03-15T15:32:48.379Z,26.42
2024-03-15T15:35:17.185Z,26.44
2024-03-15T15:37:45.853Z,26.42
2024-03-15T15:40:15.538Z,26.39
2024-03-15T15:42:47.801Z,26.31
2024-03-15T15:45:17.361Z,26.21
2024-03-15T15:47:45.782Z,26.05
2024-03-15T15:50:17.582Z,25.89
2024-03-15T15:52:47.767Z,25.75
2024-03-15T15:55:17.155Z,25.61
2024-03-15T15:57:45.240Z,25.53
2024-03-15T16:00:13.447Z,25.44
2024-03-15T16:02:42.432Z,25.29
2024-03-15T16:05:10.475Z,25.17
2024-03-15T16:07:39.234Z,25.09
2024-03-15T16:10:07.879Z,25.01
2024-03-15T16:12:35.870Z,24.89
2024-03-15T16:15:07.019Z,24.79
2024-03-15T16:17:36.139Z,24.64
2024-03-15T16:20:04.600Z,24.44
2024-03-15T16:22:32.450Z,24.23
2024-03-15T16:25:00.775Z,24.05
2024-03-15T16:27:30.096Z,23.95
2024-03-15T16:29:58.633Z,23.89
2024-03-15T16:32:26.466Z,23.82
2024-03-15T16:34:54.389Z,23.79
2024-03-15T16:37:23.872Z,23.78
2024-03-15T16:39:51.861Z,23.73
2024-03-15T16:42:20.444Z,23.62
2024-03-15T16:44:49.081Z,23.50
2024-03-15T16:47:17.496Z,23.36
2024-03-15T16:49:45.968Z,23.27
2024-03-15T16:52:14.848Z,23.16
2024-03-15T16:54:43.354Z,22.99
2024-03-15T16:57:11.337Z,22.81
2024-03-15T16:59:39.784Z,22.67
2024-03-15T17:02:10.025Z,22.50
2024-03-15T17:04:38.712Z,22.30
2024-03-15T17:07:06.944Z,22.08
2024-03-15T17:09:37.191Z,21.83
2024-03-15T17:12:06.171Z,21.62
2024-03-15T17:14:34.164Z,21.41
2024-03-15T17:17:02.272Z,21.24
2024-03-15T17:19:30.646Z,21.11
2024-03-15T17:21:58.617Z,21.01
2024-03-15T17:24:26.924Z,20.93
2024-03-15T17:26:54.877Z,20.84
2024-03-15T17:29:23.199Z,20.80
2024-03-15T17:31:51.378Z,20.80
2024-03-15T17:34:19.562Z,20.78
2024-03-15T17:36:47.664Z,20.73
2024-03-15T17:39:17.020Z,20.66
2024-03-15T17:41:45.042Z,20.61
2024-03-15T17:44:13.404Z,20.59
2024-03-15T17:46:42.258Z,20.54
2024-03-15T17:49:11.064Z,20.49
2024-03-15T17:51:39.251Z,20.45
2024-03-15T17:54:07.385Z,20.40
2024-03-15T17:56:36.818Z,20.34
2024-03-15T17:59:04.817Z,20.31
2024-03-15T18:01:33.009Z,20.26
2024-03-15T18:04:00.968Z,20.20
2024-03-15T18:06:29.010Z,20.12
2024-03-15T18:08:57.053Z,20.05
2024-03-15T18:11:25.249Z,19.98
2024-03-15T18:13:53.241Z,19.94
2024-03-15T18:16:21.331Z,19.88
2024-03-15T18:18:52.750Z,19.83
2024-03-15T18:21:20.683Z,19.80
2024-03-15T18:23:48.829Z,19.79
2024-03-15T18:26:16.756Z,19.78
2024-03-15T18:28:44.746Z,19.71
2024-03-15T18:31:13.389Z,19.65
2024-03-15T18:33:41.351Z,19.61
2024-03-15T18:36:10.125Z,19.60
2024-03-15T18:38:38.168Z,19.56
2024-03-15T18:41:06.296Z,19.54
2024-03-15T18:43:35.156Z,19.53
2024-03-15T18:46:06.336Z,19.53
2024-03-15T18:48:35.260Z,19.49
2024-03-15T18:51:03.583Z,19.44
2024-03-15T18:53:32.162Z,19.39
2024-03-15T18:56:00.048Z,19.37
2024-03-15T18:58:28.154Z,19.34
2024-03-15T19:00:56.803Z,19.32
2024-03-15T19:03:24.717Z,19.29
2024-03-15T19:05:53.743Z,19.25
2024-03-15T19:08:21.859Z,19.22
2024-03-15T19:10:49.966Z,19.17
2024-03-15T19:13:18.067Z,19.07
2024-03-15T19:15:46.229Z,18.98
2024-03-15T19:18:14.211Z,18.94
2024-03-15T19:20:42.105Z,18.95
2024-03-15T19:23:12.559Z,18.95
2024-03-15T19:25:40.975Z,18.95
2024-03-15T19:28:09.067Z,18.94
2024-03-15T19:30:37.188Z,18.94
2024-03-15T19:33:05.373Z,18.96
2024-03-15T19:35:34.438Z,18.99
2024-03-15T19:38:02.689Z,19.01
2024-03-15T19:40:30.780Z,19.06
2024-03-15T19:42:58.949Z,19.11
2024-03-15T19:45:27.634Z,19.16
2024-03-15T19:47:55.581Z,19.20
2024-03-15T19:50:23.704Z,19.25
2024-03-15T19:52:51.742Z,19.29
2024-03-15T19:55:20.016Z,19.31
2024-03-15T19:57:48.449Z,19.32
2024-03-15T20:00:16.739Z,19.32
2024-03-15T20:02:45.224Z,19.33
2024-03-15T20:05:13.437Z,19.34
2024-03-15T20:07:42.396Z,19.36
2024-03-15T20:10:10.526Z,19.35
2024-03-15T20:12:38.949Z,19.33
2024-03-15T20:15:07.329Z,19.32
2024-03-15T20:17:35.162Z,19.29
2024-03-15T20:20:03.902Z,19.29
2024-03-15T20:22:32.482Z,19.28
2024-03-15T20:25:00.364Z,19.27
2024-03-15T20:27:28.445Z,19.26
2024-03-15T20:29:56.892Z,19.26
2024-03-15T20:32:24.838Z,19.25
2024-03-15T20:34:52.814Z,19.26
2024-03-15T20:37:21.103Z,19.25
2024-03-15T20:39:49.066Z,19.25
2024-03-15T20:42:16.881Z,19.25
2024-03-15T20:44:44.930Z,19.25
2024-03-15T20:47:13.495Z,19.26
2024-03-15T20:49:42.875Z,19.26
2024-03-15T20:52:10.925Z,19.25
2024-03-15T20:54:39.034Z,19.24
2024-03-15T20:57:06.946Z,19.23
2024-03-15T20:59:38.182Z,19.22
2024-03-15T21:02:06.868Z,19.21
2024-03-15T21:04:38.113Z,19.20
2024-03-15T21:07:07.029Z,19.20
2024-03-15T21:09:35.577Z,19.20
2024-03-15T21:12:04.340Z,19.19
2024-03-15T21:14:33.218Z,19.18
2024-03-15T21:17:01.352Z,19.18
2024-03-15T21:19:30.271Z,19.18
2024-03-15T21:21:58.286Z,19.19
2024-03-15T21:24:26.653Z,19.19
2024-03-15T21:26:57.740Z,19.19
2024-03-15T21:29:31.910Z,19.19
2024-03-15T21:32:00.171Z,19.17
2024-03-15T21:34:28.304Z,19.14
2024-03-15T21:36:58.308Z,19.12
2024-03-15T21:39:26.986Z,19.11
2024-03-15T21:41:55.543Z,19.08
2024-03-15T21:44:24.902Z,19.06
2024-03-15T21:46:53.287Z,19.04
2024-03-15T21:49:21.741Z,19.01
2024-03-15T21:51:49.691Z,18.98
2024-03-15T21:54:17.696Z,18.95
2024-03-15T21:56:45.709Z,18.92
2024-03-15T21:59:13.583Z,18.89
2024-03-15T22:01:41.516Z,18.85
2024-03-15T22:04:09.621Z,18.82
2024-03-15T22:06:37.696Z,18.79
2024-03-15T22:09:06.047Z,18.76
2024-03-15T22:11:34.456Z,18.73
2024-03-15T22:14:02.391Z,18.70
2024-03-15T22:16:30.316Z,18.68
2024-03-15T22:18:58.278Z,18.67
2024-03-15T22:21:26.191Z,18.64
2024-03-15T22:23:54.566Z,18.61
2024-03-15T22:26:22.637Z,18.58
2024-03-15T22:28:50.477Z,18.55
2024-03-15T22:31:18.978Z,18.52
2024-03-15T22:33:47.079Z,18.49
2024-03-15T22:36:14.950Z,18.46
2024-03-15T22:38:43.030Z,18.43
2024-03-15T22:41:11.566Z,18.39
2024-03-15T22:43:39.354Z,18.34
2024-03-15T22:46:07.472Z,18.31
2024-03-15T22:48:35.490Z,18.28
2024-03-15T22:51:04.138Z,18.24
2024-03-15T22:53:32.096Z,18.20
2024-03-15T22:56:00.294Z,18.17
2024-03-15T22:58:28.831Z,18.14
2024-03-15T23:00:56.797Z,18.11
2024-03-15T23:03:24.944Z,18.07
2024-03-15T23:05:53.410Z,18.05
2024-03-15T23:08:21.536Z,18.02
2024-03-15T23:10:49.454Z,17.99
2024-03-15T23:13:17.466Z,17.96
2024-03-15T23:15:46.088Z,17.93
2024-03-15T23:18:14.052Z,17.89
2024-03-15T23:20:42.124Z,17.86
2024-03-15T23:23:10.825Z,17.83
2024-03-15T23:25:39.252Z,17.80
2024-03-15T23:28:07.513Z,17.78
2024-03-15T23:30:36.061Z,17.75
2024-03-15T23:33:05.878Z,17.72
2024-03-15T23:35:34.740Z,17.70
2024-03-15T23:38:03.390Z,17.69
2024-03-15T23:40:31.346Z,17.69
2024-03-15T23:43:00.211Z,17.67
2024-03-15T23:45:28.224Z,17.66
2024-03-15T23:47:57.164Z,17.64
2024-03-15T23:50:25.126Z,17.61
2024-03-15T23:52:53.056Z,17.55
2024-03-15T23:55:21.171Z,17.47
2024-03-15T23:57:49.182Z,17.42
